Terminal Aerodrome Forecast
Issued by NWS

Home | Current Version | Previous Version | Text Only | Print | Product List | Glossary On
Versions: 1 2 3 4 5 6 7 8 9 10 11 12 13
398
FTUS46 KSEW 221120
TAFCLM
TAF
KCLM 221120Z 2212/2312 27008KT P6SM VCSH BKN060
      TEMPO 2212/2216 5SM -SHRA BR BKN020 BKN060
     FM222000 27008KT P6SM SCT070=

USA.gov is the U.S. government's official web portal to all federal, state and local government web resources and services.